sensor_id;sensor_type;location;lat;lon;timestamp;temperature;humidity
80937;DHT22;70395;51.382;7.074;2024-01-30T00:01:55;12.40;57.20
80937;DHT22;70395;51.382;7.074;2024-01-30T00:04:21;12.40;57.40
80937;DHT22;70395;51.382;7.074;2024-01-30T00:06:47;12.40;57.30
80937;DHT22;70395;51.382;7.074;2024-01-30T00:09:13;12.30;57.60
80937;DHT22;70395;51.382;7.074;2024-01-30T00:11:39;12.30;57.50
80937;DHT22;70395;51.382;7.074;2024-01-30T00:14:05;12.30;57.40
80937;DHT22;70395;51.382;7.074;2024-01-30T00:16:31;12.30;57.50
80937;DHT22;70395;51.382;7.074;2024-01-30T00:18:57;12.30;57.30
80937;DHT22;70395;51.382;7.074;2024-01-30T00:21:23;12.30;57.30
80937;DHT22;70395;51.382;7.074;2024-01-30T00:23:50;12.30;57.40
80937;DHT22;70395;51.382;7.074;2024-01-30T00:26:16;12.30;57.30
80937;DHT22;70395;51.382;7.074;2024-01-30T00:28:42;12.30;57.30
80937;DHT22;70395;51.382;7.074;2024-01-30T00:31:08;12.30;57.30
80937;DHT22;70395;51.382;7.074;2024-01-30T00:33:40;12.30;57.30
80937;DHT22;70395;51.382;7.074;2024-01-30T00:36:08;12.30;57.70
80937;DHT22;70395;51.382;7.074;2024-01-30T00:38:35;12.30;57.40
80937;DHT22;70395;51.382;7.074;2024-01-30T00:41:01;12.30;57.50
80937;DHT22;70395;51.382;7.074;2024-01-30T00:43:27;12.30;57.50
80937;DHT22;70395;51.382;7.074;2024-01-30T00:45:54;12.30;57.40
80937;DHT22;70395;51.382;7.074;2024-01-30T00:48:20;12.30;57.50
80937;DHT22;70395;51.382;7.074;2024-01-30T00:50:46;12.30;57.60
80937;DHT22;70395;51.382;7.074;2024-01-30T00:53:12;12.20;57.30
80937;DHT22;70395;51.382;7.074;2024-01-30T00:55:38;12.30;57.40
80937;DHT22;70395;51.382;7.074;2024-01-30T00:58:04;12.30;57.70
80937;DHT22;70395;51.382;7.074;2024-01-30T01:00:30;12.30;57.60
80937;DHT22;70395;51.382;7.074;2024-01-30T01:03:00;12.30;57.60
80937;DHT22;70395;51.382;7.074;2024-01-30T01:05:26;12.30;57.60
80937;DHT22;70395;51.382;7.074;2024-01-30T01:07:52;12.30;57.50
80937;DHT22;70395;51.382;7.074;2024-01-30T01:10:19;12.30;57.60
80937;DHT22;70395;51.382;7.074;2024-01-30T01:12:45;12.30;57.60
80937;DHT22;70395;51.382;7.074;2024-01-30T01:15:11;12.30;57.40
80937;DHT22;70395;51.382;7.074;2024-01-30T01:17:38;12.30;57.60
80937;DHT22;70395;51.382;7.074;2024-01-30T01:20:05;12.40;57.70
80937;DHT22;70395;51.382;7.074;2024-01-30T01:22:32;12.20;57.60
80937;DHT22;70395;51.382;7.074;2024-01-30T01:24:59;12.20;57.50
80937;DHT22;70395;51.382;7.074;2024-01-30T01:27:26;12.30;57.50
80937;DHT22;70395;51.382;7.074;2024-01-30T01:29:52;12.20;57.60
80937;DHT22;70395;51.382;7.074;2024-01-30T01:32:18;12.20;57.70
80937;DHT22;70395;51.382;7.074;2024-01-30T01:34:44;12.20;57.60
80937;DHT22;70395;51.382;7.074;2024-01-30T01:37:10;12.20;57.50
80937;DHT22;70395;51.382;7.074;2024-01-30T01:39:36;12.10;57.80
80937;DHT22;70395;51.382;7.074;2024-01-30T01:42:02;12.10;57.70
80937;DHT22;70395;51.382;7.074;2024-01-30T01:44:28;12.10;57.70
80937;DHT22;70395;51.382;7.074;2024-01-30T01:46:54;12.10;57.80
80937;DHT22;70395;51.382;7.074;2024-01-30T01:49:22;12.10;57.90
80937;DHT22;70395;51.382;7.074;2024-01-30T01:51:52;12.10;57.80
80937;DHT22;70395;51.382;7.074;2024-01-30T01:54:23;12.20;57.60
80937;DHT22;70395;51.382;7.074;2024-01-30T01:56:51;12.20;57.80
80937;DHT22;70395;51.382;7.074;2024-01-30T01:59:20;12.30;57.80
80937;DHT22;70395;51.382;7.074;2024-01-30T02:01:47;12.20;57.70
80937;DHT22;70395;51.382;7.074;2024-01-30T02:04:16;12.20;57.70
80937;DHT22;70395;51.382;7.074;2024-01-30T02:06:43;12.20;57.70
80937;DHT22;70395;51.382;7.074;2024-01-30T02:09:09;12.20;57.60
80937;DHT22;70395;51.382;7.074;2024-01-30T02:11:35;12.20;57.70
80937;DHT22;70395;51.382;7.074;2024-01-30T02:14:04;12.20;57.70
80937;DHT22;70395;51.382;7.074;2024-01-30T02:16:31;12.10;57.80
80937;DHT22;70395;51.382;7.074;2024-01-30T02:18:57;12.10;57.70
80937;DHT22;70395;51.382;7.074;2024-01-30T02:21:23;12.10;57.90
80937;DHT22;70395;51.382;7.074;2024-01-30T02:23:50;12.10;57.80
80937;DHT22;70395;51.382;7.074;2024-01-30T02:26:17;12.10;57.70
80937;DHT22;70395;51.382;7.074;2024-01-30T02:28:43;12.10;57.80
80937;DHT22;70395;51.382;7.074;2024-01-30T02:31:09;12.10;57.80
80937;DHT22;70395;51.382;7.074;2024-01-30T02:33:35;12.10;57.70
80937;DHT22;70395;51.382;7.074;2024-01-30T02:36:00;12.20;57.90
80937;DHT22;70395;51.382;7.074;2024-01-30T02:38:26;12.10;57.90
80937;DHT22;70395;51.382;7.074;2024-01-30T02:40:52;12.10;57.90
80937;DHT22;70395;51.382;7.074;2024-01-30T02:43:18;12.20;58.10
80937;DHT22;70395;51.382;7.074;2024-01-30T02:45:44;12.20;57.90
80937;DHT22;70395;51.382;7.074;2024-01-30T02:48:10;12.20;57.90
80937;DHT22;70395;51.382;7.074;2024-01-30T02:50:36;12.20;57.90
80937;DHT22;70395;51.382;7.074;2024-01-30T02:53:02;12.20;58.20
80937;DHT22;70395;51.382;7.074;2024-01-30T02:55:27;12.20;58.00
80937;DHT22;70395;51.382;7.074;2024-01-30T02:57:53;12.20;57.90
80937;DHT22;70395;51.382;7.074;2024-01-30T03:00:20;12.20;57.90
80937;DHT22;70395;51.382;7.074;2024-01-30T03:02:46;12.20;57.80
80937;DHT22;70395;51.382;7.074;2024-01-30T03:05:11;12.20;57.80
80937;DHT22;70395;51.382;7.074;2024-01-30T03:07:37;12.20;57.80
80937;DHT22;70395;51.382;7.074;2024-01-30T03:10:07;12.20;57.90
80937;DHT22;70395;51.382;7.074;2024-01-30T03:12:33;12.20;57.90
80937;DHT22;70395;51.382;7.074;2024-01-30T03:14:59;12.20;58.20
80937;DHT22;70395;51.382;7.074;2024-01-30T03:17:24;12.20;57.90
80937;DHT22;70395;51.382;7.074;2024-01-30T03:19:50;12.20;57.80
80937;DHT22;70395;51.382;7.074;2024-01-30T03:22:17;12.20;58.20
80937;DHT22;70395;51.382;7.074;2024-01-30T03:24:42;12.20;58.20
80937;DHT22;70395;51.382;7.074;2024-01-30T03:27:08;12.20;58.10
80937;DHT22;70395;51.382;7.074;2024-01-30T03:29:34;12.30;58.20
80937;DHT22;70395;51.382;7.074;2024-01-30T03:32:00;12.30;58.30
80937;DHT22;70395;51.382;7.074;2024-01-30T03:34:26;12.30;58.00
80937;DHT22;70395;51.382;7.074;2024-01-30T03:36:52;12.30;57.90
80937;DHT22;70395;51.382;7.074;2024-01-30T03:39:18;12.30;57.90
80937;DHT22;70395;51.382;7.074;2024-01-30T03:41:43;12.30;57.80
80937;DHT22;70395;51.382;7.074;2024-01-30T03:44:11;12.40;57.80
80937;DHT22;70395;51.382;7.074;2024-01-30T03:46:37;12.40;57.70
80937;DHT22;70395;51.382;7.074;2024-01-30T03:49:03;12.40;57.70
80937;DHT22;70395;51.382;7.074;2024-01-30T03:51:28;12.40;57.80
80937;DHT22;70395;51.382;7.074;2024-01-30T03:53:54;12.40;57.60
80937;DHT22;70395;51.382;7.074;2024-01-30T03:56:20;12.40;57.60
80937;DHT22;70395;51.382;7.074;2024-01-30T03:58:46;12.50;57.80
80937;DHT22;70395;51.382;7.074;2024-01-30T04:01:15;12.50;57.80
80937;DHT22;70395;51.382;7.074;2024-01-30T04:03:41;12.50;57.70
80937;DHT22;70395;51.382;7.074;2024-01-30T04:06:08;12.50;57.60
80937;DHT22;70395;51.382;7.074;2024-01-30T04:08:34;12.50;57.50
80937;DHT22;70395;51.382;7.074;2024-01-30T04:11:06;12.60;57.70
80937;DHT22;70395;51.382;7.074;2024-01-30T04:13:32;12.50;57.50
80937;DHT22;70395;51.382;7.074;2024-01-30T04:16:02;12.50;57.50
80937;DHT22;70395;51.382;7.074;2024-01-30T04:18:29;12.50;57.50
80937;DHT22;70395;51.382;7.074;2024-01-30T04:20:55;12.60;57.50
80937;DHT22;70395;51.382;7.074;2024-01-30T04:23:21;12.50;57.40
80937;DHT22;70395;51.382;7.074;2024-01-30T04:25:47;12.50;57.30
80937;DHT22;70395;51.382;7.074;2024-01-30T04:28:13;12.50;57.40
80937;DHT22;70395;51.382;7.074;2024-01-30T04:30:39;12.50;57.50
80937;DHT22;70395;51.382;7.074;2024-01-30T04:33:05;12.50;57.50
80937;DHT22;70395;51.382;7.074;2024-01-30T04:35:31;12.50;57.60
80937;DHT22;70395;51.382;7.074;2024-01-30T04:37:57;12.60;57.50
80937;DHT22;70395;51.382;7.074;2024-01-30T04:40:23;12.50;57.40
80937;DHT22;70395;51.382;7.074;2024-01-30T04:42:49;12.60;57.40
80937;DHT22;70395;51.382;7.074;2024-01-30T04:45:15;12.50;57.40
80937;DHT22;70395;51.382;7.074;2024-01-30T04:47:40;12.50;57.50
80937;DHT22;70395;51.382;7.074;2024-01-30T04:50:07;12.50;57.50
80937;DHT22;70395;51.382;7.074;2024-01-30T04:52:34;12.50;57.50
80937;DHT22;70395;51.382;7.074;2024-01-30T04:55:00;12.50;57.40
80937;DHT22;70395;51.382;7.074;2024-01-30T04:57:26;12.60;57.70
80937;DHT22;70395;51.382;7.074;2024-01-30T04:59:52;12.50;57.60
80937;DHT22;70395;51.382;7.074;2024-01-30T05:02:18;12.40;57.60
80937;DHT22;70395;51.382;7.074;2024-01-30T05:04:43;12.40;57.50
80937;DHT22;70395;51.382;7.074;2024-01-30T05:07:09;12.40;57.70
80937;DHT22;70395;51.382;7.074;2024-01-30T05:09:35;12.40;57.50
80937;DHT22;70395;51.382;7.074;2024-01-30T05:12:01;12.40;57.70
80937;DHT22;70395;51.382;7.074;2024-01-30T05:14:27;12.40;57.90
80937;DHT22;70395;51.382;7.074;2024-01-30T05:16:53;12.40;57.70
80937;DHT22;70395;51.382;7.074;2024-01-30T05:19:18;12.40;57.80
80937;DHT22;70395;51.382;7.074;2024-01-30T05:21:45;12.40;57.80
80937;DHT22;70395;51.382;7.074;2024-01-30T05:24:11;12.40;58.00
80937;DHT22;70395;51.382;7.074;2024-01-30T05:26:37;12.40;57.90
80937;DHT22;70395;51.382;7.074;2024-01-30T05:29:03;12.40;58.10
80937;DHT22;70395;51.382;7.074;2024-01-30T05:31:29;12.40;57.80
80937;DHT22;70395;51.382;7.074;2024-01-30T05:33:55;12.40;57.90
80937;DHT22;70395;51.382;7.074;2024-01-30T05:36:20;12.40;57.80
80937;DHT22;70395;51.382;7.074;2024-01-30T05:38:47;12.40;57.70
80937;DHT22;70395;51.382;7.074;2024-01-30T05:41:13;12.40;57.80
80937;DHT22;70395;51.382;7.074;2024-01-30T05:43:39;12.40;57.60
80937;DHT22;70395;51.382;7.074;2024-01-30T05:46:04;12.40;57.60
80937;DHT22;70395;51.382;7.074;2024-01-30T05:48:31;12.40;57.60
80937;DHT22;70395;51.382;7.074;2024-01-30T05:50:58;12.20;57.60
80937;DHT22;70395;51.382;7.074;2024-01-30T05:53:25;12.30;57.80
80937;DHT22;70395;51.382;7.074;2024-01-30T05:55:51;12.30;57.70
80937;DHT22;70395;51.382;7.074;2024-01-30T05:58:17;12.30;57.70
80937;DHT22;70395;51.382;7.074;2024-01-30T06:00:42;12.30;57.80
80937;DHT22;70395;51.382;7.074;2024-01-30T06:03:08;12.30;57.80
80937;DHT22;70395;51.382;7.074;2024-01-30T06:05:34;12.30;57.90
80937;DHT22;70395;51.382;7.074;2024-01-30T06:08:00;12.30;57.80
80937;DHT22;70395;51.382;7.074;2024-01-30T06:10:25;12.30;57.90
80937;DHT22;70395;51.382;7.074;2024-01-30T06:12:51;12.30;57.90
80937;DHT22;70395;51.382;7.074;2024-01-30T06:15:17;12.30;58.10
80937;DHT22;70395;51.382;7.074;2024-01-30T06:17:43;12.30;58.10
80937;DHT22;70395;51.382;7.074;2024-01-30T06:20:09;12.30;58.10
80937;DHT22;70395;51.382;7.074;2024-01-30T06:22:35;12.30;58.10
80937;DHT22;70395;51.382;7.074;2024-01-30T06:25:01;12.30;58.00
80937;DHT22;70395;51.382;7.074;2024-01-30T06:27:27;12.20;57.80
80937;DHT22;70395;51.382;7.074;2024-01-30T06:29:53;12.20;57.90
80937;DHT22;70395;51.382;7.074;2024-01-30T06:32:19;12.20;57.90
80937;DHT22;70395;51.382;7.074;2024-01-30T06:34:45;12.20;58.30
80937;DHT22;70395;51.382;7.074;2024-01-30T06:37:10;12.20;58.10
80937;DHT22;70395;51.382;7.074;2024-01-30T06:39:36;12.20;58.20
80937;DHT22;70395;51.382;7.074;2024-01-30T06:42:02;12.20;58.30
80937;DHT22;70395;51.382;7.074;2024-01-30T06:44:28;12.20;58.30
80937;DHT22;70395;51.382;7.074;2024-01-30T06:46:54;12.20;58.20
80937;DHT22;70395;51.382;7.074;2024-01-30T06:49:20;12.20;58.50
80937;DHT22;70395;51.382;7.074;2024-01-30T06:51:47;12.20;58.40
80937;DHT22;70395;51.382;7.074;2024-01-30T06:54:13;12.20;58.40
80937;DHT22;70395;51.382;7.074;2024-01-30T06:56:39;12.30;58.40
80937;DHT22;70395;51.382;7.074;2024-01-30T06:59:05;12.30;58.50
80937;DHT22;70395;51.382;7.074;2024-01-30T07:01:31;12.30;58.30
80937;DHT22;70395;51.382;7.074;2024-01-30T07:03:57;12.30;58.40
80937;DHT22;70395;51.382;7.074;2024-01-30T07:06:23;12.30;58.40
80937;DHT22;70395;51.382;7.074;2024-01-30T07:08:50;12.30;58.30
80937;DHT22;70395;51.382;7.074;2024-01-30T07:11:19;12.40;58.60
80937;DHT22;70395;51.382;7.074;2024-01-30T07:13:47;12.30;58.40
80937;DHT22;70395;51.382;7.074;2024-01-30T07:16:14;12.40;58.60
80937;DHT22;70395;51.382;7.074;2024-01-30T07:18:41;12.40;58.80
80937;DHT22;70395;51.382;7.074;2024-01-30T07:21:06;12.40;58.80
80937;DHT22;70395;51.382;7.074;2024-01-30T07:23:32;12.40;58.60
80937;DHT22;70395;51.382;7.074;2024-01-30T07:26:01;12.40;58.80
80937;DHT22;70395;51.382;7.074;2024-01-30T07:28:27;12.50;58.90
80937;DHT22;70395;51.382;7.074;2024-01-30T07:30:52;12.50;58.60
80937;DHT22;70395;51.382;7.074;2024-01-30T07:33:18;12.50;58.60
80937;DHT22;70395;51.382;7.074;2024-01-30T07:35:45;12.50;58.60
80937;DHT22;70395;51.382;7.074;2024-01-30T07:38:11;12.60;58.70
80937;DHT22;70395;51.382;7.074;2024-01-30T07:40:37;12.60;58.60
80937;DHT22;70395;51.382;7.074;2024-01-30T07:43:03;12.60;58.60
80937;DHT22;70395;51.382;7.074;2024-01-30T07:45:29;12.60;58.60
80937;DHT22;70395;51.382;7.074;2024-01-30T07:47:58;12.60;58.80
80937;DHT22;70395;51.382;7.074;2024-01-30T07:50:27;12.70;58.80
80937;DHT22;70395;51.382;7.074;2024-01-30T07:52:55;12.70;58.80
80937;DHT22;70395;51.382;7.074;2024-01-30T07:55:22;12.70;58.60
80937;DHT22;70395;51.382;7.074;2024-01-30T07:57:54;12.80;58.70
80937;DHT22;70395;51.382;7.074;2024-01-30T08:00:21;12.80;58.80
80937;DHT22;70395;51.382;7.074;2024-01-30T08:02:47;12.80;58.80
80937;DHT22;70395;51.382;7.074;2024-01-30T08:05:13;12.80;58.80
80937;DHT22;70395;51.382;7.074;2024-01-30T08:07:41;12.90;58.80
80937;DHT22;70395;51.382;7.074;2024-01-30T08:10:08;12.90;58.90
80937;DHT22;70395;51.382;7.074;2024-01-30T08:12:34;12.90;58.70
80937;DHT22;70395;51.382;7.074;2024-01-30T08:15:00;13.00;58.70
80937;DHT22;70395;51.382;7.074;2024-01-30T08:17:26;13.00;59.30
80937;DHT22;70395;51.382;7.074;2024-01-30T08:19:51;13.00;58.60
80937;DHT22;70395;51.382;7.074;2024-01-30T08:22:17;13.10;58.50
80937;DHT22;70395;51.382;7.074;2024-01-30T08:24:43;13.10;58.30
80937;DHT22;70395;51.382;7.074;2024-01-30T08:27:10;13.20;58.50
80937;DHT22;70395;51.382;7.074;2024-01-30T08:29:36;13.20;58.20
80937;DHT22;70395;51.382;7.074;2024-01-30T08:32:02;13.20;58.20
80937;DHT22;70395;51.382;7.074;2024-01-30T08:34:29;13.20;58.30
80937;DHT22;70395;51.382;7.074;2024-01-30T08:36:55;13.20;58.20
80937;DHT22;70395;51.382;7.074;2024-01-30T08:39:20;13.20;58.20
80937;DHT22;70395;51.382;7.074;2024-01-30T08:41:46;13.20;58.10
80937;DHT22;70395;51.382;7.074;2024-01-30T08:44:12;13.20;58.10
80937;DHT22;70395;51.382;7.074;2024-01-30T08:46:38;13.20;58.10
80937;DHT22;70395;51.382;7.074;2024-01-30T08:49:04;13.30;58.20
80937;DHT22;70395;51.382;7.074;2024-01-30T08:51:30;13.30;58.00
80937;DHT22;70395;51.382;7.074;2024-01-30T08:53:56;13.30;58.00
80937;DHT22;70395;51.382;7.074;2024-01-30T08:56:22;13.40;58.00
80937;DHT22;70395;51.382;7.074;2024-01-30T08:58:48;13.40;58.10
80937;DHT22;70395;51.382;7.074;2024-01-30T09:01:14;13.40;58.00
80937;DHT22;70395;51.382;7.074;2024-01-30T09:03:40;13.40;58.00
80937;DHT22;70395;51.382;7.074;2024-01-30T09:06:10;13.50;58.00
80937;DHT22;70395;51.382;7.074;2024-01-30T09:08:36;13.50;58.00
80937;DHT22;70395;51.382;7.074;2024-01-30T09:11:12;13.60;58.00
80937;DHT22;70395;51.382;7.074;2024-01-30T09:13:38;13.60;57.90
80937;DHT22;70395;51.382;7.074;2024-01-30T09:16:04;13.70;58.00
80937;DHT22;70395;51.382;7.074;2024-01-30T09:18:31;13.70;57.90
80937;DHT22;70395;51.382;7.074;2024-01-30T09:20:57;13.80;57.90
80937;DHT22;70395;51.382;7.074;2024-01-30T09:23:23;13.80;57.80
80937;DHT22;70395;51.382;7.074;2024-01-30T09:25:49;13.90;57.80
80937;DHT22;70395;51.382;7.074;2024-01-30T09:28:15;13.90;57.70
80937;DHT22;70395;51.382;7.074;2024-01-30T09:30:40;14.00;57.70
80937;DHT22;70395;51.382;7.074;2024-01-30T09:33:06;14.00;57.60
80937;DHT22;70395;51.382;7.074;2024-01-30T09:35:32;14.10;57.50
80937;DHT22;70395;51.382;7.074;2024-01-30T09:37:59;14.10;57.40
80937;DHT22;70395;51.382;7.074;2024-01-30T09:40:25;14.20;57.40
80937;DHT22;70395;51.382;7.074;2024-01-30T09:42:51;14.20;57.30
80937;DHT22;70395;51.382;7.074;2024-01-30T09:45:18;14.30;57.40
80937;DHT22;70395;51.382;7.074;2024-01-30T09:47:45;14.30;57.10
80937;DHT22;70395;51.382;7.074;2024-01-30T09:50:13;14.40;57.10
80937;DHT22;70395;51.382;7.074;2024-01-30T09:52:40;14.50;57.10
80937;DHT22;70395;51.382;7.074;2024-01-30T09:55:07;14.50;56.80
80937;DHT22;70395;51.382;7.074;2024-01-30T09:57:34;14.60;56.80
80937;DHT22;70395;51.382;7.074;2024-01-30T10:00:01;14.70;56.50
80937;DHT22;70395;51.382;7.074;2024-01-30T10:02:31;14.80;56.40
80937;DHT22;70395;51.382;7.074;2024-01-30T10:04:57;15.00;56.30
80937;DHT22;70395;51.382;7.074;2024-01-30T10:07:24;15.10;56.20
80937;DHT22;70395;51.382;7.074;2024-01-30T10:09:49;15.20;55.70
80937;DHT22;70395;51.382;7.074;2024-01-30T10:12:15;15.40;55.90
80937;DHT22;70395;51.382;7.074;2024-01-30T10:14:42;15.60;55.80
80937;DHT22;70395;51.382;7.074;2024-01-30T10:17:09;15.80;55.10
80937;DHT22;70395;51.382;7.074;2024-01-30T10:19:37;16.00;54.50
80937;DHT22;70395;51.382;7.074;2024-01-30T10:22:04;16.20;54.60
80937;DHT22;70395;51.382;7.074;2024-01-30T10:24:31;16.30;53.40
80937;DHT22;70395;51.382;7.074;2024-01-30T10:26:58;16.40;53.50
80937;DHT22;70395;51.382;7.074;2024-01-30T10:29:24;16.50;53.80
80937;DHT22;70395;51.382;7.074;2024-01-30T10:32:01;16.60;53.60
80937;DHT22;70395;51.382;7.074;2024-01-30T10:34:28;16.80;52.90
80937;DHT22;70395;51.382;7.074;2024-01-30T10:37:07;16.90;52.90
80937;DHT22;70395;51.382;7.074;2024-01-30T10:39:39;17.10;52.50
80937;DHT22;70395;51.382;7.074;2024-01-30T10:42:10;17.20;52.70
80937;DHT22;70395;51.382;7.074;2024-01-30T10:47:49;17.40;52.30
80937;DHT22;70395;51.382;7.074;2024-01-30T10:50:16;17.40;51.10
80937;DHT22;70395;51.382;7.074;2024-01-30T10:52:42;17.50;51.70
80937;DHT22;70395;51.382;7.074;2024-01-30T10:55:10;17.50;51.60
80937;DHT22;70395;51.382;7.074;2024-01-30T10:57:37;17.50;51.50
80937;DHT22;70395;51.382;7.074;2024-01-30T11:00:10;17.50;51.50
80937;DHT22;70395;51.382;7.074;2024-01-30T11:02:43;17.50;51.20
80937;DHT22;70395;51.382;7.074;2024-01-30T11:05:11;17.40;51.30
80937;DHT22;70395;51.382;7.074;2024-01-30T11:07:39;17.40;51.80
80937;DHT22;70395;51.382;7.074;2024-01-30T11:10:08;17.30;51.80
80937;DHT22;70395;51.382;7.074;2024-01-30T11:12:39;17.30;52.10
80937;DHT22;70395;51.382;7.074;2024-01-30T11:17:53;17.40;51.80
80937;DHT22;70395;51.382;7.074;2024-01-30T11:20:20;17.20;51.70
80937;DHT22;70395;51.382;7.074;2024-01-30T11:22:57;17.20;52.10
80937;DHT22;70395;51.382;7.074;2024-01-30T11:25:25;17.10;52.20
80937;DHT22;70395;51.382;7.074;2024-01-30T11:27:53;17.00;52.50
80937;DHT22;70395;51.382;7.074;2024-01-30T11:32:59;16.90;52.80
80937;DHT22;70395;51.382;7.074;2024-01-30T11:35:41;16.80;52.90
80937;DHT22;70395;51.382;7.074;2024-01-30T11:38:09;16.80;53.10
80937;DHT22;70395;51.382;7.074;2024-01-30T11:40:37;16.80;53.10
80937;DHT22;70395;51.382;7.074;2024-01-30T11:43:05;16.80;53.10
80937;DHT22;70395;51.382;7.074;2024-01-30T11:45:32;16.80;53.20
80937;DHT22;70395;51.382;7.074;2024-01-30T11:47:59;16.80;53.20
80937;DHT22;70395;51.382;7.074;2024-01-30T11:50:35;16.70;53.20
80937;DHT22;70395;51.382;7.074;2024-01-30T11:53:04;16.70;53.50
80937;DHT22;70395;51.382;7.074;2024-01-30T11:55:30;16.70;53.60
80937;DHT22;70395;51.382;7.074;2024-01-30T11:57:59;16.60;53.60
80937;DHT22;70395;51.382;7.074;2024-01-30T12:00:25;16.60;53.80
80937;DHT22;70395;51.382;7.074;2024-01-30T12:02:52;16.60;53.80
80937;DHT22;70395;51.382;7.074;2024-01-30T12:05:23;16.60;54.60
80937;DHT22;70395;51.382;7.074;2024-01-30T12:07:50;16.50;54.00
80937;DHT22;70395;51.382;7.074;2024-01-30T12:10:16;16.50;54.30
80937;DHT22;70395;51.382;7.074;2024-01-30T12:12:45;16.30;54.20
80937;DHT22;70395;51.382;7.074;2024-01-30T12:15:13;16.30;54.20
80937;DHT22;70395;51.382;7.074;2024-01-30T12:17:39;16.30;54.60
80937;DHT22;70395;51.382;7.074;2024-01-30T12:22:43;16.10;55.10
80937;DHT22;70395;51.382;7.074;2024-01-30T12:25:15;16.00;55.40
80937;DHT22;70395;51.382;7.074;2024-01-30T12:27:43;16.00;55.60
80937;DHT22;70395;51.382;7.074;2024-01-30T12:30:16;15.90;55.40
80937;DHT22;70395;51.382;7.074;2024-01-30T12:32:44;15.80;55.70
80937;DHT22;70395;51.382;7.074;2024-01-30T12:35:16;15.80;55.80
80937;DHT22;70395;51.382;7.074;2024-01-30T12:37:44;15.70;56.10
80937;DHT22;70395;51.382;7.074;2024-01-30T12:40:11;15.70;56.30
80937;DHT22;70395;51.382;7.074;2024-01-30T12:42:43;15.60;56.30
80937;DHT22;70395;51.382;7.074;2024-01-30T12:45:14;15.60;56.50
80937;DHT22;70395;51.382;7.074;2024-01-30T12:47:41;15.60;56.50
80937;DHT22;70395;51.382;7.074;2024-01-30T12:50:07;15.50;57.00
80937;DHT22;70395;51.382;7.074;2024-01-30T12:52:35;15.50;57.00
80937;DHT22;70395;51.382;7.074;2024-01-30T12:55:01;15.40;57.10
80937;DHT22;70395;51.382;7.074;2024-01-30T12:57:29;15.40;57.00
80937;DHT22;70395;51.382;7.074;2024-01-30T12:59:55;15.40;57.20
80937;DHT22;70395;51.382;7.074;2024-01-30T13:02:21;15.40;57.00
80937;DHT22;70395;51.382;7.074;2024-01-30T13:04:48;15.40;57.20
80937;DHT22;70395;51.382;7.074;2024-01-30T13:07:13;15.30;57.30
80937;DHT22;70395;51.382;7.074;2024-01-30T13:09:39;15.30;57.50
80937;DHT22;70395;51.382;7.074;2024-01-30T13:12:05;15.30;57.50
80937;DHT22;70395;51.382;7.074;2024-01-30T13:14:32;15.30;57.70
80937;DHT22;70395;51.382;7.074;2024-01-30T13:16:58;15.20;57.90
80937;DHT22;70395;51.382;7.074;2024-01-30T13:19:24;15.20;58.00
80937;DHT22;70395;51.382;7.074;2024-01-30T13:21:50;15.20;58.20
80937;DHT22;70395;51.382;7.074;2024-01-30T13:24:16;15.10;58.40
80937;DHT22;70395;51.382;7.074;2024-01-30T13:26:42;15.10;58.20
80937;DHT22;70395;51.382;7.074;2024-01-30T13:29:09;15.10;58.80
80937;DHT22;70395;51.382;7.074;2024-01-30T13:31:35;15.10;58.80
80937;DHT22;70395;51.382;7.074;2024-01-30T13:34:01;15.00;58.70
80937;DHT22;70395;51.382;7.074;2024-01-30T13:36:27;15.00;59.10
80937;DHT22;70395;51.382;7.074;2024-01-30T13:38:53;15.00;59.60
80937;DHT22;70395;51.382;7.074;2024-01-30T13:41:19;15.00;59.40
80937;DHT22;70395;51.382;7.074;2024-01-30T13:43:46;15.00;59.70
80937;DHT22;70395;51.382;7.074;2024-01-30T13:46:11;14.90;59.80
80937;DHT22;70395;51.382;7.074;2024-01-30T13:48:37;14.90;59.70
80937;DHT22;70395;51.382;7.074;2024-01-30T13:51:03;14.90;59.60
80937;DHT22;70395;51.382;7.074;2024-01-30T13:53:29;14.90;59.70
80937;DHT22;70395;51.382;7.074;2024-01-30T13:55:55;14.90;60.10
80937;DHT22;70395;51.382;7.074;2024-01-30T13:58:21;14.80;59.90
80937;DHT22;70395;51.382;7.074;2024-01-30T14:00:47;14.80;60.20
80937;DHT22;70395;51.382;7.074;2024-01-30T14:03:12;14.80;60.60
80937;DHT22;70395;51.382;7.074;2024-01-30T14:05:38;14.80;60.70
80937;DHT22;70395;51.382;7.074;2024-01-30T14:08:04;14.80;60.60
80937;DHT22;70395;51.382;7.074;2024-01-30T14:10:30;14.80;60.90
80937;DHT22;70395;51.382;7.074;2024-01-30T14:12:56;14.80;60.70
80937;DHT22;70395;51.382;7.074;2024-01-30T14:15:22;14.80;60.60
80937;DHT22;70395;51.382;7.074;2024-01-30T14:17:48;14.80;60.80
80937;DHT22;70395;51.382;7.074;2024-01-30T14:20:15;14.80;60.90
80937;DHT22;70395;51.382;7.074;2024-01-30T14:22:45;14.80;60.80
80937;DHT22;70395;51.382;7.074;2024-01-30T14:25:11;14.90;61.00
80937;DHT22;70395;51.382;7.074;2024-01-30T14:27:37;14.90;60.90
80937;DHT22;70395;51.382;7.074;2024-01-30T14:30:03;14.90;61.00
80937;DHT22;70395;51.382;7.074;2024-01-30T14:32:30;14.90;61.00
80937;DHT22;70395;51.382;7.074;2024-01-30T14:34:55;15.00;60.90
80937;DHT22;70395;51.382;7.074;2024-01-30T14:37:21;15.00;60.70
80937;DHT22;70395;51.382;7.074;2024-01-30T14:39:48;15.10;60.80
80937;DHT22;70395;51.382;7.074;2024-01-30T14:42:15;15.10;60.60
80937;DHT22;70395;51.382;7.074;2024-01-30T14:44:42;15.10;61.20
80937;DHT22;70395;51.382;7.074;2024-01-30T14:47:08;15.10;60.40
80937;DHT22;70395;51.382;7.074;2024-01-30T14:49:34;15.20;60.50
80937;DHT22;70395;51.382;7.074;2024-01-30T14:52:00;15.10;60.30
80937;DHT22;70395;51.382;7.074;2024-01-30T14:54:26;15.10;60.10
80937;DHT22;70395;51.382;7.074;2024-01-30T14:56:53;15.20;60.00
80937;DHT22;70395;51.382;7.074;2024-01-30T14:59:19;15.20;60.00
80937;DHT22;70395;51.382;7.074;2024-01-30T15:01:45;15.20;59.90
80937;DHT22;70395;51.382;7.074;2024-01-30T15:04:11;15.20;59.90
80937;DHT22;70395;51.382;7.074;2024-01-30T15:06:37;15.20;59.90
80937;DHT22;70395;51.382;7.074;2024-01-30T15:09:03;15.10;59.80
80937;DHT22;70395;51.382;7.074;2024-01-30T15:11:29;15.10;59.90
80937;DHT22;70395;51.382;7.074;2024-01-30T15:13:56;15.10;59.90
80937;DHT22;70395;51.382;7.074;2024-01-30T15:16:21;15.00;59.70
80937;DHT22;70395;51.382;7.074;2024-01-30T15:18:47;15.00;59.80
80937;DHT22;70395;51.382;7.074;2024-01-30T15:21:13;15.00;59.70
80937;DHT22;70395;51.382;7.074;2024-01-30T15:23:39;14.90;59.60
80937;DHT22;70395;51.382;7.074;2024-01-30T15:26:05;14.90;59.60
80937;DHT22;70395;51.382;7.074;2024-01-30T15:28:38;14.90;59.50
80937;DHT22;70395;51.382;7.074;2024-01-30T15:31:05;14.80;59.40
80937;DHT22;70395;51.382;7.074;2024-01-30T15:33:32;14.80;59.40
80937;DHT22;70395;51.382;7.074;2024-01-30T15:36:02;14.80;59.40
80937;DHT22;70395;51.382;7.074;2024-01-30T15:38:28;14.80;59.40